Terminal Aerodrome Forecast
Issued by NWS

Current Version | Previous Version | Text Only | Print | Product List | Glossary On
Versions: 1 2 3 4 5 6 7 8 9 10 11 12 13
000
FTUS42 KTBW 031722
TAFPGD
TAF
KPGD 031722Z 0318/0418 29004KT P6SM SCT035 SCT250
     FM031900 29008KT P6SM VCTS SCT040CB SCT250
     FM040000 31005KT P6SM SCT050 BKN250
     FM040500 VRB03KT P6SM FEW030 SCT250
     FM041600 32006KT P6SM VCTS SCT030CB SCT250=

USA.gov is the U.S. government's official web portal to all federal, state and local government web resources and services.